Data for 04/12/2005

Time Sea-Level Adjusted Pressure Absolute Pressure Temperature Relative Humidity Dew Point   
(mb) (inHg) (mb) (inHg) (C) (F) (%) (C) (F)
00:05 1014 29.94 844 24.92 6.2 43.2 48 -4 24.8
00:10 1014 29.94 844 24.92 5.9 42.6 49 -3.9 24.9
00:15 1014 29.94 844 24.92 5.6 42.1 51 -3.8 25.1
00:20 1015 29.97 844 24.92 5.2 41.3 51 -4 24.7
00:25 1015 29.97 844 24.92 5 40.9 52 -4 24.8
00:30 1015 29.97 844 24.92 5 41.1 52 -4 24.7
00:35 1015 29.97 844 24.92 4.5 40.2 55 -3.6 25.5
00:40 1015 29.97 844 24.92 4.2 39.5 56 -3.8 25.2
00:45 1015 29.97 844 24.92 4 39.2 56 -3.9 25
00:50 1015 29.97 844 24.92 3.9 39 57 -3.8 25.1
00:55 1015 29.97 844 24.92 3.8 38.8 57 -3.9 25
01:00 1015 29.97 844 24.92 3.8 38.9 56 -4 24.7
01:05 1015 29.97 844 24.92 4 39.2 56 -4 24.8
01:10 1015 29.97 844 24.92 4.2 39.6 56 -3.9 25
01:15 1015 29.97 844 24.92 4 39.2 56 -3.9 25
01:20 1015 29.97 844 24.92 3.9 39 56 -4 24.9
01:25 1015 29.97 844 24.92 3.6 38.5 58 -3.8 25.1
01:30 1015 29.97 844 24.92 3.6 38.4 58 -4 24.8
01:35 1015 29.97 844 24.92 3.5 38.2 58 -3.9 24.9
01:40 1015 29.97 844 24.92 3.5 38.3 57 -4.2 24.4
01:45 1015 29.97 844 24.92 3.5 38.2 58 -4.1 24.7
01:50 1015 29.97 844 24.92 3.5 38.4 57 -4.3 24.3
01:55 1015 29.97 844 24.92 3.7 38.6 57 -4.2 24.5
02:00 1015 29.97 844 24.92 3.6 38.5 57 -4.2 24.5
02:05 1015 29.97 844 24.92 3.4 38.1 57 -4.4 24.1
02:10 1015 29.97 844 24.92 3.7 38.7 56 -4.3 24.3
02:15 1015 29.97 844 24.92 3.7 38.7 56 -4.2 24.4
02:20 1015 29.97 844 24.92 3.5 38.4 56 -4.4 24.1
02:25 1015 29.97 844 24.92 3.7 38.6 56 -4.4 24.1
02:30 1015 29.97 844 24.92 3.7 38.7 55 -4.6 23.7
02:35 1015 29.97 844 24.92 3.8 38.9 54 -4.5 23.8
02:40 1015 29.97 844 24.92 3.8 38.8 55 -4.5 23.9
02:45 1015 29.97 844 24.92 3.7 38.6 56 -4.3 24.2
02:50 1015 29.97 844 24.92 3.4 38.1 57 -4.4 24.1
02:55 1015 29.97 844 24.92 3.4 38 56 -4.5 23.8
03:00 1015 29.97 844 24.92 3.7 38.6 56 -4.3 24.3
03:05 1015 29.97 844 24.92 3.7 38.7 56 -4.2 24.5
03:10 1015 29.97 844 24.92 3.9 39.1 55 -4.2 24.4
03:15 1015 29.97 844 24.92 4 39.1 55 -4.2 24.5
03:20 1015 29.97 844 24.92 3.7 38.6 57 -4.2 24.5
03:25 1015 29.97 844 24.92 3.3 38 58 -4.1 24.6
03:30 1015 29.97 844 24.92 3 37.4 60 -4.1 24.6
03:35 1015 29.97 844 24.92 2.7 36.9 61 -4.1 24.7
03:40 1015 29.97 844 24.92 2.6 36.7 61 -4.1 24.7
03:45 1015 29.97 844 24.92 2.6 36.6 62 -4 24.8
03:50 1015 29.97 844 24.92 2.6 36.6 61 -4.1 24.6
03:55 1015 29.97 844 24.92 2.5 36.6 62 -4.1 24.6
04:00 1015 29.97 844 24.92 2.6 36.6 61 -4.1 24.6
04:05 1015 29.97 844 24.92 2.7 36.8 60 -4.2 24.4
04:10 1015 29.97 844 24.92 2.5 36.5 62 -4.1 24.7
04:15 1015 29.97 844 24.92 2.5 36.6 61 -4.2 24.5
04:20 1014 29.94 844 24.92 2.7 36.9 61 -4.1 24.6
04:25 1014 29.94 844 24.92 2.8 37 60 -4.1 24.6
04:30 1014 29.94 844 24.92 2.8 37.1 60 -4.3 24.3
04:35 1014 29.94 844 24.92 2.9 37.3 60 -4.1 24.6
04:40 1014 29.94 844 24.92 2.7 36.9 61 -4.1 24.7
04:45 1014 29.94 843 24.89 2.7 36.8 60 -4.2 24.4
04:50 1014 29.94 843 24.89 2.7 36.9 61 -4 24.7
04:55 1014 29.94 843 24.89 2.6 36.7 61 -4.2 24.5
05:00 1014 29.94 843 24.89 2.5 36.5 62 -4.1 24.7
05:05 1014 29.94 843 24.89 2.4 36.3 62 -4.1 24.6
05:10 1014 29.94 843 24.89 2.6 36.7 60 -4.3 24.3
05:15 1014 29.94 843 24.89 2.7 36.8 61 -4.1 24.6
05:20 1014 29.94 843 24.89 2.5 36.5 61 -4.3 24.3
05:25 1014 29.94 843 24.89 2.7 36.9 60 -4.3 24.3
05:30 1014 29.94 843 24.89 2.8 37 60 -4.3 24.3
05:35 1014 29.94 843 24.89 2.8 37 59 -4.3 24.2
05:40 1014 29.94 843 24.89 3 37.4 58 -4.4 24
05:45 1014 29.94 843 24.89 3.2 37.7 59 -4.2 24.5
05:50 1014 29.94 843 24.89 3.1 37.5 59 -4.2 24.4
05:55 1014 29.94 843 24.89 3.1 37.6 58 -4.4 24.1
06:00 1014 29.94 843 24.89 3.2 37.8 57 -4.5 23.9
06:05 1014 29.94 843 24.89 3.1 37.7 57 -4.6 23.8
06:10 1014 29.94 843 24.89 3.4 38.2 55 -4.7 23.5
06:15 1014 29.94 843 24.89 3.5 38.3 56 -4.4 24.1
06:20 1014 29.94 843 24.89 3.4 38.2 56 -4.6 23.8
06:25 1014 29.94 843 24.89 3.5 38.3 56 -4.5 23.9
06:30 1014 29.94 843 24.89 3.7 38.7 55 -4.4 24
06:35 1014 29.94 843 24.89 3.6 38.4 56 -4.4 24.1
06:40 1014 29.94 844 24.92 3.6 38.4 57 -4.3 24.3
06:45 1014 29.94 844 24.92 3.6 38.5 56 -4.4 24.1
06:50 1014 29.94 844 24.92 3.8 38.8 55 -4.5 24
06:55 1014 29.94 844 24.92 3.9 39 55 -4.3 24.3
07:00 1015 29.97 844 24.92 3.7 38.6 57 -4 24.8
07:05 1014 29.94 844 24.92 3.5 38.3 57 -4.3 24.3
07:10 1014 29.94 844 24.92 3.5 38.2 61 -3.4 25.9
07:15 1014 29.94 844 24.92 2.6 36.6 66 -3.1 26.4
07:20 1014 29.94 844 24.92 2 35.7 67 -3.4 25.9
07:25 1014 29.94 844 24.92 2.4 36.4 65 -3.5 25.6
07:30 1014 29.94 844 24.92 3 37.4 62 -3.6 25.5
07:35 1014 29.94 844 24.92 3.2 37.8 60 -3.8 25.1
07:40 1014 29.94 844 24.92 3.5 38.4 58 -3.9 24.9
07:45 1014 29.94 843 24.89 4 39.1 56 -4 24.9
07:50 1014 29.94 843 24.89 4.5 40 54 -4 24.7
07:55 1014 29.94 843 24.89 5.1 41.3 52 -3.8 25.2
08:00 1014 29.94 843 24.89 5.4 41.7 52 -3.8 25.2
08:05 1014 29.94 843 24.89 5.7 42.2 50 -3.8 25.1
08:10 1014 29.94 843 24.89 6 42.9 50 -3.7 25.4
08:15 1014 29.94 843 24.89 6.3 43.4 49 -3.5 25.7
08:20 1014 29.94 843 24.89 6.6 43.9 49 -3.3 26
08:25 1014 29.94 843 24.89 6.9 44.4 48 -3.3 26
08:30 1014 29.94 843 24.89 7.3 45.2 48 -2.9 26.7
08:35 1014 29.94 843 24.89 7.6 45.7 47 -2.8 26.9
08:40 1014 29.94 843 24.89 8 46.4 45 -3.1 26.5
08:45 1014 29.94 843 24.89 8.6 47.5 43 -3.2 26.3
08:50 1014 29.94 843 24.89 9.2 48.5 41 -3.4 25.9
08:55 1014 29.94 843 24.89 9.6 49.3 39 -3.5 25.7
09:00 1014 29.94 843 24.89 9.9 49.8 39 -3.3 26.1
09:05 1014 29.94 843 24.89 10.4 50.7 36 -3.9 25
09:10 1014 29.94 843 24.89 10.4 50.7 35 -4.3 24.2
09:15 1014 29.94 843 24.89 10.7 51.3 34 -4.3 24.2
09:20 1014 29.94 843 24.89 11 51.8 34 -4 24.7
09:25 1014 29.94 843 24.89 11.2 52.2 33 -4.3 24.2
09:30 1014 29.94 843 24.89 11.4 52.4 33 -4.3 24.3
09:35 1014 29.94 843 24.89 11.5 52.8 32 -4.5 24
09:40 1014 29.94 843 24.89 11.8 53.2 32 -4.2 24.4
09:45 1014 29.94 843 24.89 11.9 53.4 32 -4.2 24.5
09:50 1014 29.94 843 24.89 12.3 54.2 31 -4.3 24.3
09:55 1014 29.94 843 24.89 12.4 54.2 31 -4.2 24.5
10:00 1014 29.94 843 24.89 12.6 54.8 31 -3.8 25.2
10:05 1014 29.94 843 24.89 13.1 55.5 30 -4 24.7
10:10 1014 29.94 843 24.89 13.4 56.1 29 -4 24.8
10:15 1014 29.94 843 24.89 13.7 56.6 29 -4.2 24.5
10:20 1014 29.94 843 24.89 13.5 56.3 30 -3.5 25.8
10:25 1013 29.91 843 24.89 13.7 56.7 29 -3.9 25
10:30 1013 29.91 843 24.89 13.7 56.6 28 -4.5 23.9
10:35 1013 29.91 843 24.89 13.7 56.6 29 -4.1 24.7
10:40 1013 29.91 843 24.89 13.6 56.5 27 -5 23.1
10:45 1013 29.91 843 24.89 13.4 56.2 28 -4.6 23.7
10:50 1013 29.91 843 24.89 13.4 56.1 28 -4.7 23.6
10:55 1013 29.91 843 24.89 13.7 56.6 27 -4.9 23.1
11:00 1013 29.91 842 24.86 13.8 56.9 27 -4.7 23.5
11:05 1013 29.91 842 24.86 13.5 56.2 28 -4.5 23.8
11:10 1013 29.91 842 24.86 13.7 56.6 27 -4.8 23.3
11:15 1013 29.91 842 24.86 13.7 56.7 27 -5.1 22.9
11:20 1013 29.91 842 24.86 14 57.2 26 -5 23
11:25 1013 29.91 842 24.86 14.3 57.7 26 -5.1 22.8
11:30 1013 29.91 842 24.86 14.1 57.3 27 -4.7 23.5
11:35 1013 29.91 842 24.86 14.1 57.3 26 -4.9 23.2
11:40 1013 29.91 842 24.86 14 57.1 25 -5.6 22
11:45 1013 29.91 842 24.86 14.1 57.4 26 -5.1 22.9
11:50 1013 29.91 842 24.86 14.6 58.2 26 -4.8 23.3
11:55 1013 29.91 842 24.86 14.8 58.6 26 -4.6 23.7
12:00 1013 29.91 842 24.86 14.9 58.7 25 -5.2 22.7
12:05 1013 29.91 842 24.86 14.8 58.7 26 -4.3 24.3
12:10 1013 29.91 842 24.86 14.5 58.2 24 -5.5 22.2
12:15 1013 29.91 842 24.86 14.2 57.5 26 -5.2 22.7
12:20 1013 29.91 842 24.86 14.3 57.7 25 -5.5 22.2
12:25 1013 29.91 842 24.86 14.5 58.1 24 -5.6 21.9
12:30 1013 29.91 842 24.86 14.6 58.2 25 -5.2 22.6
12:35 1013 29.91 842 24.86 15 59.1 23 -5.7 21.8
12:40 1013 29.91 842 24.86 15.1 59.2 23 -5.6 22
12:45 1012 29.88 842 24.86 15 58.9 24 -5.6 21.9
12:50 1012 29.88 842 24.86 14.8 58.7 22 -6.4 20.5
12:55 1012 29.88 842 24.86 14.7 58.5 23 -6.3 20.7
13:00 1012 29.88 841 24.83 14.8 58.6 22 -6.6 20.1
13:05 1012 29.88 841 24.83 14.9 58.8 23 -6.2 20.8
13:10 1012 29.88 841 24.83 14.8 58.7 22 -6.8 19.8
13:15 1012 29.88 841 24.83 15 59 21 -6.9 19.6
13:20 1012 29.88 841 24.83 15.2 59.3 23 -5.8 21.5
13:25 1012 29.88 841 24.83 16 60.7 21 -6.3 20.6
13:30 1012 29.88 841 24.83 15.9 60.5 21 -6.2 20.8
13:35 1012 29.88 841 24.83 16 60.7 21 -6.3 20.7
13:40 1012 29.88 841 24.83 16.4 61.5 20 -6.4 20.5
13:45 1012 29.88 841 24.83 16.3 61.3 19 -7.4 18.7
13:50 1012 29.88 841 24.83 16.2 61.2 20 -6.5 20.2
13:55 1012 29.88 841 24.83 16 60.8 21 -6.1 21.1
14:00 1012 29.88 841 24.83 16 60.7 21 -6.4 20.4
14:05 1012 29.88 841 24.83 16.1 60.9 21 -6.4 20.6
14:10 1012 29.88 841 24.83 16.3 61.3 21 -6.3 20.7
14:15 1012 29.88 841 24.83 15.9 60.6 20 -6.7 20
14:20 1012 29.88 841 24.83 15.8 60.5 20 -6.9 19.5
14:25 1012 29.88 841 24.83 16.2 61.1 22 -5.8 21.6
14:30 1012 29.88 841 24.83 16.2 61.2 20 -6.4 20.4
14:35 1012 29.88 841 24.83 16 60.8 20 -6.6 20.1
14:40 1012 29.88 841 24.83 16 60.7 20 -6.8 19.8
14:45 1012 29.88 841 24.83 15.8 60.5 21 -6.2 20.8
14:50 1012 29.88 841 24.83 16.4 61.5 21 -6.2 20.9
14:55 1011 29.85 841 24.83 16.1 61 20 -6.5 20.3
15:00 1011 29.85 841 24.83 16 60.8 21 -6 21.1
15:05 1012 29.88 841 24.83 16.4 61.4 21 -6.1 21
15:10 1011 29.85 841 24.83 16.5 61.6 20 -6.6 20.1
15:15 1011 29.85 841 24.83 16.4 61.6 20 -6.5 20.2
15:20 1011 29.85 840 24.81 16.6 61.8 19 -7 19.5
15:25 1011 29.85 841 24.83 16.3 61.3 19 -7.2 19.1
15:30 1011 29.85 840 24.81 16 60.9 20 -6.9 19.7
15:35 1011 29.85 840 24.81 15.9 60.6 20 -7 19.3
15:40 1011 29.85 840 24.81 16.1 61 19 -7.6 18.3
15:45 1011 29.85 840 24.81 16.1 60.9 19 -7.6 18.4
15:50 1011 29.85 840 24.81 15.9 60.6 19 -7.4 18.7
15:55 1011 29.85 840 24.81 15.7 60.3 19 -7.8 17.9
16:00 1011 29.85 841 24.83 15.9 60.5 18 -8.3 17
16:05 1011 29.85 840 24.81 16.1 61 20 -7 19.4
16:10 1011 29.85 841 24.83 16.4 61.5 19 -7.3 18.8
16:15 1011 29.85 841 24.83 16.1 60.9 20 -7 19.4
16:20 1011 29.85 841 24.83 16.1 60.9 19 -7.6 18.3
16:25 1011 29.85 841 24.83 16.4 61.4 19 -7.6 18.4
16:30 1011 29.85 840 24.81 16.4 61.5 19 -7.3 18.8
16:35 1011 29.85 840 24.81 16.2 61.2 18 -8 17.6
16:40 1011 29.85 840 24.81 16.2 61.1 19 -7.2 19
16:45 1011 29.85 840 24.81 16.3 61.3 20 -6.8 19.8
16:50 1011 29.85 840 24.81 16.9 62.5 19 -7.1 19.2
16:55 1011 29.85 840 24.81 16.7 62 19 -6.7 19.9
17:00 1011 29.85 840 24.81 16.7 62.1 18 -7.7 18.2
17:05 1011 29.85 840 24.81 16.4 61.5 19 -7.5 18.6
17:10 1011 29.85 840 24.81 16.9 62.3 20 -5.9 21.4
17:15 1011 29.85 840 24.81 16.9 62.5 18 -7.1 19.2
17:20 1011 29.85 840 24.81 16.7 62 19 -7.2 19.1
17:25 1011 29.85 840 24.81 16.6 62 21 -5.6 21.8
17:30 1011 29.85 840 24.81 16.8 62.2 20 -6.3 20.6
17:35 1011 29.85 840 24.81 16.8 62.2 19 -7 19.3
17:40 1011 29.85 840 24.81 16.7 62 19 -7 19.4
17:45 1011 29.85 840 24.81 16.6 61.9 19 -6.7 19.9
17:50 1011 29.85 840 24.81 16.7 62 21 -6 21.3
17:55 1011 29.85 840 24.81 17 62.5 19 -6.6 20.2
18:00 1011 29.85 840 24.81 16.9 62.4 20 -6 21.3
18:05 1011 29.85 840 24.81 16.4 61.6 20 -6.2 20.8
18:10 1011 29.85 840 24.81 16.2 61.2 22 -5.5 22
18:15 1011 29.85 840 24.81 16.4 61.5 21 -5.8 21.6
18:20 1011 29.85 840 24.81 16.3 61.4 21 -5.8 21.6
18:25 1011 29.85 840 24.81 16.2 61.1 22 -5.7 21.7
18:30 1011 29.85 840 24.81 16.2 61.2 22 -5.6 21.9
18:35 1011 29.85 840 24.81 16 60.7 21 -6 21.2
18:40 1011 29.85 840 24.81 15.8 60.5 23 -5.4 22.3
18:45 1011 29.85 840 24.81 15.9 60.6 22 -5.5 22.1
18:50 1011 29.85 840 24.81 15.9 60.6 22 -5.5 22.2
18:55 1011 29.85 840 24.81 15.7 60.2 25 -4.3 24.3
19:00 1011 29.85 840 24.81 15.5 59.8 23 -5.7 21.7
19:05 1011 29.85 840 24.81 15.4 59.7 23 -5.9 21.5
19:10 1011 29.85 840 24.81 15.3 59.5 24 -5.2 22.6
19:15 1011 29.85 840 24.81 15.2 59.3 26 -4.1 24.5
19:20 1011 29.85 840 24.81 15.2 59.3 23 -5.6 21.9
19:25 1011 29.85 840 24.81 15.1 59.2 23 -5.5 22.1
19:30 1011 29.85 840 24.81 15 59.1 23 -5.8 21.6
19:35 1011 29.85 840 24.81 15 59 24 -5.1 22.8
19:40 1011 29.85 840 24.81 14.8 58.6 25 -5 23
19:45 1011 29.85 840 24.81 14.6 58.3 25 -5.1 22.9
19:50 1011 29.85 841 24.83 14.6 58.3 29 -3 26.6
19:55 1011 29.85 841 24.83 14.5 58 26 -4.5 23.8
20:00 1011 29.85 841 24.83 14.3 57.8 27 -4.4 24.1
20:05 1011 29.85 841 24.83 14.3 57.8 27 -4.2 24.4
20:10 1012 29.88 841 24.83 14.3 57.7 27 -4.2 24.5
20:15 1012 29.88 841 24.83 14.2 57.6 27 -4.3 24.2
20:20 1012 29.88 841 24.83 14 57.3 27 -4.4 24
20:25 1012 29.88 841 24.83 14.2 57.5 27 -4.5 23.9
20:30 1012 29.88 841 24.83 14.2 57.5 29 -3.6 25.5
20:35 1012 29.88 841 24.83 14.2 57.5 27 -4.3 24.3
20:40 1012 29.88 841 24.83 13.9 56.9 28 -4.3 24.3
20:45 1012 29.88 841 24.83 13.7 56.6 28 -4.3 24.3
20:50 1012 29.88 841 24.83 13.5 56.3 28 -4.8 23.4
20:55 1012 29.88 841 24.83 13.7 56.7 28 -4.4 24
21:00 1012 29.88 841 24.83 13.5 56.4 28 -4.5 23.9
21:05 1012 29.88 841 24.83 13.4 56.1 29 -4.1 24.6
21:10 1012 29.88 841 24.83 13.2 55.8 30 -4 24.8
21:15 1012 29.88 841 24.83 13.3 55.9 28 -4.6 23.7
21:20 1012 29.88 841 24.83 13.3 55.9 30 -3.9 24.9
21:25 1012 29.88 841 24.83 12.9 55.2 30 -4.2 24.4
21:30 1012 29.88 841 24.83 12.8 55.1 34 -2.6 27.4
21:35 1012 29.88 841 24.83 12.9 55.2 29 -4.6 23.8
21:40 1012 29.88 841 24.83 13.3 55.9 29 -4.3 24.3
21:45 1012 29.88 842 24.86 13.1 55.6 30 -4.1 24.7
21:50 1012 29.88 842 24.86 12.6 54.7 32 -3.6 25.5
21:55 1012 29.88 842 24.86 12.1 53.8 33 -3.8 25.2
22:00 1012 29.88 842 24.86 11.3 52.4 35 -3.6 25.5
22:05 1012 29.88 842 24.86 10.8 51.5 35 -3.8 25.1
22:10 1012 29.88 842 24.86 10.5 50.9 37 -3.6 25.6
22:15 1012 29.88 842 24.86 10.8 51.4 35 -4 24.8
22:20 1012 29.88 842 24.86 11 51.7 35 -4 24.9
22:25 1012 29.88 842 24.86 10.9 51.6 35 -3.8 25.2
22:30 1012 29.88 842 24.86 10.6 51 36 -3.7 25.3
22:35 1012 29.88 842 24.86 10.6 51 36 -3.8 25.2
22:40 1012 29.88 842 24.86 10.3 50.6 38 -3.3 26.1
22:45 1012 29.88 842 24.86 10 50.1 38 -3.5 25.6
22:50 1012 29.88 842 24.86 10 50 38 -3.8 25.1
22:55 1012 29.88 841 24.83 10.1 50.1 38 -3.6 25.5
23:00 1012 29.88 841 24.83 10.1 50.2 37 -3.8 25.1
23:05 1012 29.88 841 24.83 10.1 50.3 37 -4 24.9
23:10 1012 29.88 841 24.83 10.1 50.3 37 -4 24.9
23:15 1012 29.88 841 24.83 10.1 50.1 37 -3.8 25.2
23:20 1012 29.88 841 24.83 9.6 49.3 38 -4.1 24.6
23:25 1012 29.88 841 24.83 9.6 49.3 38 -4.2 24.5
23:30 1012 29.88 841 24.83 9.8 49.6 37 -4 24.8
23:35 1012 29.88 841 24.83 9.4 48.8 39 -4 24.8
23:40 1012 29.88 841 24.83 9.8 49.6 35 -4.9 23.1
23:45 1012 29.88 841 24.83 10.4 50.7 34 -4.8 23.4
23:50 1012 29.88 841 24.83 10.7 51.2 33 -4.8 23.4
23:55 1012 29.88 841 24.83 10.6 51 34 -4.6 23.7
24:00 1012 29.88 841 24.83 10.6 51.1 33 -4.9 23.1